Latest Weather Observations for Mount Keith

IDW60801

Issued at 6:05 pm WST Wednesday 23 July 2014 (issued every 30 minutes, with the page automatically refreshed every 10 minutes)

About weather observations | Map of weather stations | Latest weather observations for WA | Other Formats
Station Details ID: 512019 Name: MOUNT KEITH Lat: -27.29 Lon: 120.55 Height: 542.33 m
Data from the previous 72 hours. | See also: Recent months for locations in Western Australia
Date/Time
WST
Temp
°C
App
Temp
°C
Dew
Point
Rel
Hum
%
Delta-T
°C
Wind Press
QNH
hPa
Press
MSL
hPa
Rain
since 9 am
mm
Dir
 
Spd
km/h
Gust
km/h
Spd
kts
Gust
kts
23/06:00pm 13.3 8.3 -1.1 37 6.0 SW 15 19 8 10 1020.2 1019.8 0.0
23/05:30pm 14.1 9.1 -1.5 34 6.5 SW 15 20 8 11 1020.0 - 0.0
23/05:00pm 15.0 9.0 -1.5 32 6.9 SW 20 26 11 14 1019.9 1019.5 0.0
23/04:30pm 15.8 10.0 -1.3 31 7.3 SW 19 26 10 14 1019.6 - 0.0
23/04:00pm 15.7 9.8 -0.9 32 7.1 SW 20 28 11 15 1019.3 1018.9 0.0
23/03:30pm 15.9 10.3 -0.3 33 7.1 SW 19 30 10 16 1019.3 - 0.0
23/03:00pm 16.0 10.2 -0.2 33 7.1 SW 20 28 11 15 1019.3 1018.9 0.0
23/02:30pm 15.6 9.8 -0.2 34 6.9 SW 20 28 11 15 1019.4 - 0.0
23/02:00pm 15.6 10.5 0.6 36 6.6 WSW 17 22 9 12 1019.5 1019.1 0.0
23/01:30pm 15.0 10.1 1.9 41 5.9 WSW 17 32 9 17 1019.7 - 0.0
23/01:00pm 14.9 10.4 2.4 43 5.7 WSW 15 30 8 16 1019.8 1019.4 0.0
23/12:30pm 13.9 8.6 2.8 47 5.1 WSW 20 28 11 15 1020.1 - 0.0
23/12:00pm 13.6 8.0 3.4 50 4.7 WSW 22 30 12 16 1020.8 1020.5 0.0
23/11:30am 13.0 7.7 3.1 51 4.5 SW 20 30 11 16 1021.5 - 0.0
23/11:00am 12.2 7.6 3.9 57 3.8 SW 17 26 9 14 1022.1 1021.7 0.0
23/10:30am 11.6 6.7 4.3 61 3.4 SW 19 26 10 14 1022.7 - 0.0
23/10:00am 10.8 6.8 4.7 66 2.8 W 15 20 8 11 1022.8 1022.5 0.0
23/09:30am 9.8 6.2 4.8 71 2.3 SW 13 20 7 11 1022.5 - 0.0
23/09:00am 9.2 4.8 5.0 75 1.9 SSW 17 26 9 14 1022.5 1022.2 0.0
23/08:30am 8.2 3.4 4.8 79 1.6 SW 19 26 10 14 1022.2 - 0.0
23/08:00am 7.5 3.1 4.5 81 1.3 SW 17 20 9 11 1022.0 1021.6 0.0
23/07:30am 6.0 1.7 3.5 84 1.1 SW 15 19 8 10 1021.7 - 0.0
23/07:00am 5.5 0.4 3.2 85 1.0 SSW 19 22 10 12 1021.0 1020.6 0.0
23/06:30am 5.2 0.0 2.7 84 1.1 SW 19 24 10 13 1020.8 - 0.0
23/06:00am 4.9 0.0 2.3 83 1.1 SW 17 22 9 12 1020.6 1020.2 0.0
23/05:30am 5.2 0.3 2.2 81 1.3 WSW 17 20 9 11 1020.8 - 0.0
23/05:00am 5.3 0.4 2.1 80 1.3 WSW 17 19 9 10 1020.8 1020.5 0.0
23/04:30am 5.7 0.8 2.0 77 1.5 SW 17 20 9 11 1020.4 - 0.0
23/04:00am 5.9 1.4 2.0 76 1.6 SW 15 19 8 10 1020.0 1019.6 0.0
23/03:30am 6.1 1.1 1.2 71 2.0 SW 17 20 9 11 1020.3 - 0.0
23/03:00am 6.0 0.9 0.8 69 2.1 WSW 17 19 9 10 1020.5 1020.1 0.0
23/02:30am 6.2 1.1 0.7 68 2.2 WSW 17 22 9 12 1020.4 - 0.0
23/02:00am 6.2 1.1 0.7 68 2.2 WSW 17 20 9 11 1020.4 1020.0 0.0
23/01:30am 6.6 1.5 0.7 66 2.4 SW 17 20 9 11 1020.5 - 0.0
23/01:00am 7.2 2.1 0.9 64 2.6 SW 17 20 9 11 1020.6 1020.2 0.0
23/12:30am 8.0 3.3 1.0 61 2.9 SW 15 20 8 11 1020.6 - 0.0
23/12:00am 8.7 4.0 0.9 58 3.3 WSW 15 19 8 10 1020.7 1020.3 0.0
 
Date/Time
WST
Temp
°C
App
Temp
°C
Dew
Point
Rel
Hum
%
Delta-T
°C
Wind Press
QNH
hPa
Press
MSL
hPa
Rain
since 9 am
mm
Dir
 
Spd
km/h
Gust
km/h
Spd
kts
Gust
kts
22/11:30pm 8.9 4.2 1.1 58 3.3 WSW 15 20 8 11 1020.8 - 0.0
22/11:00pm 9.0 4.8 1.4 59 3.2 WSW 13 17 7 9 1021.0 1020.6 0.0
22/10:30pm 9.5 5.3 1.4 57 3.5 WSW 13 19 7 10 1020.7 - 0.0
22/10:00pm 9.9 5.7 1.8 57 3.5 WSW 13 19 7 10 1020.6 1020.2 0.0
22/09:30pm 10.1 6.0 2.2 58 3.5 WSW 13 15 7 8 1020.5 - 0.0
22/09:00pm 10.7 6.6 2.3 56 3.7 WSW 13 17 7 9 1020.5 1020.1 0.0
22/08:30pm 11.5 6.3 2.3 53 4.1 WSW 19 24 10 13 1020.4 - 0.0
22/08:00pm 12.1 6.7 2.6 52 4.3 WSW 20 28 11 15 1020.0 1019.6 0.0
22/07:30pm 12.6 6.8 2.5 50 4.5 WSW 22 30 12 16 1019.6 - 0.0
22/07:00pm 13.0 7.7 2.8 50 4.6 WSW 20 26 11 14 1019.0 1018.5 0.0
22/06:30pm 13.5 8.3 2.4 47 5.0 WSW 19 28 10 15 1018.4 - 0.0
22/06:00pm 14.2 7.3 2.8 46 5.2 WSW 28 43 15 23 1017.9 1017.5 0.0
22/05:30pm 14.6 7.4 2.8 45 5.4 W 30 46 16 25 1017.6 - 0.0
22/05:00pm 15.1 7.5 3.9 47 5.3 WSW 33 43 18 23 1017.3 1016.8 0.0
22/04:30pm 15.9 8.0 4.6 47 5.5 WSW 35 48 19 26 1016.7 - 0.0
22/04:00pm 17.1 9.7 3.8 41 6.4 W 32 46 17 25 1016.3 1015.9 0.0
22/03:30pm 17.6 9.8 2.0 35 7.2 W 32 44 17 24 1016.0 - 0.0
22/03:06pm 17.6 9.7 1.2 33 7.5 W 32 50 17 27 1015.8 - 0.0
22/03:00pm 17.7 10.3 1.7 34 7.4 W 30 46 16 25 1015.7 1015.2 0.0
22/02:30pm 17.5 9.6 1.1 33 7.5 WSW 32 46 17 25 1015.8 - 0.0
22/02:21pm 18.2 10.3 1.3 32 7.8 WSW 32 50 17 27 1015.6 - 0.0
22/02:00pm 18.0 10.0 1.5 33 7.6 W 33 46 18 25 1015.7 1015.2 0.0
22/01:34pm 18.3 8.9 2.2 34 7.6 WSW 41 48 22 26 1015.6 - 0.0
22/01:30pm 17.9 9.0 0.6 31 7.8 W 37 52 20 28 1015.6 - 0.0
22/01:00pm 17.8 10.2 4.0 40 6.7 W 33 48 18 26 1015.8 1015.3 0.0
22/12:30pm 16.6 8.7 4.6 45 5.8 W 35 43 19 23 1016.4 - 0.0
22/12:12pm 16.5 9.2 4.5 45 5.8 W 32 50 17 27 1016.6 - 0.0
22/12:00pm 16.5 9.3 4.9 46 5.7 W 32 46 17 25 1016.7 1016.3 0.0
22/11:30am 16.2 9.0 4.9 47 5.5 W 32 41 17 22 1017.2 - 0.0
22/11:00am 15.9 9.2 5.8 51 5.0 W 30 43 16 23 1017.7 1017.3 0.0
22/10:30am 16.1 9.9 6.0 51 5.0 W 28 35 15 19 1018.0 - 0.0
22/10:00am 14.9 7.7 5.1 52 4.7 WSW 32 39 17 21 1018.1 1017.7 0.0
22/09:30am 14.1 6.8 4.7 53 4.5 W 32 43 17 23 1018.4 - 0.0
22/09:00am 13.6 7.8 4.2 53 4.4 W 24 37 13 20 1018.1 1017.7 0.0
22/08:30am 12.3 7.2 4.0 57 3.9 W 20 24 11 13 1017.7 - 0.0
22/08:00am 10.8 8.2 3.4 60 3.3 WNW 6 9 3 5 1017.6 1017.1 0.0
22/07:30am 8.7 5.7 2.3 64 2.8 WNW 7 9 4 5 1017.2 - 0.0
22/07:00am 8.2 4.1 2.0 65 2.6 W 13 15 7 8 1016.8 1016.4 0.0
22/06:30am 7.9 4.1 2.0 66 2.5 W 11 13 6 7 1016.6 - 0.0
22/06:00am 8.3 4.2 2.1 65 2.7 WSW 13 17 7 9 1015.9 1015.4 0.0
22/05:30am 8.1 4.7 2.1 66 2.6 NW 9 13 5 7 1015.9 - 0.0
22/05:00am 8.5 5.1 1.9 63 2.8 NW 9 11 5 6 1015.7 1015.2 0.0
22/04:30am 9.4 5.7 2.3 61 3.1 NNW 11 13 6 7 1015.7 - 0.0
22/04:00am 10.5 6.0 2.4 57 3.6 NNW 15 19 8 10 1015.7 1015.2 0.0
22/03:30am 11.7 8.0 2.5 53 4.1 NNW 11 15 6 8 1015.8 - 0.0
22/03:00am 13.0 8.2 2.8 50 4.6 N 17 22 9 12 1015.7 1015.2 0.0
22/02:30am 13.8 8.5 3.0 48 5.0 N 20 26 11 14 1015.7 - 0.0
22/02:00am 13.1 8.4 3.2 51 4.5 N 17 20 9 11 1015.8 1015.3 0.0
22/01:30am 13.0 8.7 3.4 52 4.4 N 15 19 8 10 1015.9 - 0.0
22/01:00am 10.1 7.3 3.2 62 3.1 NE 7 11 4 6 1016.1 1015.7 0.0
22/12:30am 9.1 6.5 3.1 66 2.7 NE 6 9 3 5 1016.2 - 0.0
22/12:00am 8.4 6.7 2.0 64 2.7 CALM 0 0 0 0 1016.3 1015.9 0.0
 
Date/Time
WST
Temp
°C
App
Temp
°C
Dew
Point
Rel
Hum
%
Delta-T
°C
Wind Press
QNH
hPa
Press
MSL
hPa
Rain
since 9 am
mm
Dir
 
Spd
km/h
Gust
km/h
Spd
kts
Gust
kts
21/11:30pm 9.3 7.6 1.9 60 3.2 CALM 0 0 0 0 1016.4 - 0.0
21/11:00pm 9.9 8.2 2.0 58 3.4 CALM 0 0 0 0 1016.5 1016.1 0.0
21/10:30pm 10.4 8.0 2.3 57 3.6 ENE 4 7 2 4 1016.9 - 0.0
21/10:00pm 9.1 7.5 2.2 62 3.0 CALM 0 0 0 0 1017.1 1016.6 0.0
21/09:30pm 9.5 7.4 1.7 58 3.4 SE 2 7 1 4 1017.1 - 0.0
21/09:00pm 10.2 8.1 1.6 55 3.7 SE 2 7 1 4 1017.2 1016.7 0.0
21/08:30pm 10.4 8.0 2.3 57 3.6 SE 4 6 2 3 1017.2 - 0.0
21/08:00pm 11.3 8.2 1.5 51 4.3 SE 7 9 4 5 1017.1 1016.6 0.0
21/07:30pm 13.0 9.6 1.7 46 5.0 SSE 9 9 5 5 1017.1 - 0.0
21/07:00pm 13.4 10.1 2.3 47 5.0 ESE 9 11 5 6 1017.2 1016.7 0.0
21/06:30pm 13.8 10.5 2.4 46 5.2 E 9 11 5 6 1017.1 - 0.0
21/06:00pm 15.1 11.8 2.3 42 5.9 NE 9 11 5 6 1016.8 1016.4 0.0
21/05:30pm 16.8 13.5 2.4 38 6.7 NE 9 11 5 6 1016.6 - 0.0
21/05:00pm 18.5 15.5 1.9 33 7.7 NNE 7 11 4 6 1016.4 1016.0 0.0
21/04:30pm 19.4 16.1 2.7 33 8.0 NNE 9 19 5 10 1016.4 - 0.0
21/04:00pm 20.0 16.8 2.8 32 8.3 N 9 15 5 8 1016.5 1016.1 0.0
21/03:30pm 19.8 16.6 3.1 33 8.1 N 9 15 5 8 1016.6 - 0.0
21/03:00pm 19.7 16.6 3.8 35 7.8 N 9 15 5 8 1016.6 1016.2 0.0
21/02:30pm 19.3 15.8 3.5 35 7.7 NW 11 17 6 9 1016.8 - 0.0
21/02:00pm 18.8 15.7 3.8 37 7.3 WNW 9 15 5 8 1017.2 1016.7 0.0
21/01:30pm 18.2 15.2 4.0 39 6.9 SSW 9 13 5 7 1017.6 - 0.0
21/01:00pm 18.0 15.1 4.6 41 6.6 N 9 19 5 10 1018.2 1017.8 0.0
21/12:30pm 17.6 14.4 5.2 44 6.1 NW 11 17 6 9 1018.8 - 0.0
21/12:00pm 17.1 14.0 5.4 46 5.8 W 11 20 6 11 1019.4 1019.0 0.0
21/11:30am 16.0 13.7 5.9 51 5.0 WNW 7 13 4 7 1020.0 - 0.0
21/11:00am 15.5 12.9 6.0 53 4.7 NW 9 15 5 8 1020.4 1020.0 0.0
21/10:30am 14.8 12.5 7.6 62 3.7 SW 9 15 5 8 1021.1 - 0.0
21/10:00am 14.1 12.0 8.1 67 3.1 SSW 9 17 5 9 1021.4 1021.0 0.0
21/09:30am 13.4 10.5 8.3 71 2.6 WSW 13 17 7 9 1021.6 - 0.0
21/09:00am 12.6 9.0 8.3 75 2.2 SSW 17 20 9 11 1021.4 1021.0 0.0
21/08:30am 12.0 8.8 8.5 79 1.8 SSW 15 17 8 9 1021.1 - 0.0
21/08:00am 10.3 8.5 8.1 86 1.1 W 7 11 4 6 1021.0 1020.6 0.0
21/07:30am 7.6 5.2 5.4 86 1.0 W 7 7 4 4 1020.7 - 0.0
21/07:00am 6.4 3.6 5.0 91 0.6 WSW 9 9 5 5 1020.5 1020.1 0.0
21/06:30am 5.8 3.1 3.6 86 1.0 WSW 7 9 4 5 1020.1 - 0.0
21/06:00am 6.7 3.4 4.5 86 1.0 W 11 11 6 6 1019.8 1019.4 0.0
21/05:30am 6.6 3.5 3.6 81 1.3 W 9 9 5 5 1019.7 - 0.0
21/05:00am 7.2 4.1 3.8 79 1.5 W 9 9 5 5 1019.5 1019.1 0.0
21/04:30am 7.6 4.9 3.5 75 1.8 W 7 9 4 5 1019.4 - 0.0
21/04:00am 8.0 5.2 3.3 72 2.1 W 7 7 4 4 1019.3 1018.9 0.0
21/03:30am 8.9 5.9 3.9 71 2.3 W 9 11 5 6 1019.3 - 0.0
21/03:00am 8.4 4.9 3.5 71 2.2 W 11 13 6 7 1019.2 1018.7 0.0
21/02:30am 8.4 5.2 3.3 70 2.3 W 9 11 5 6 1019.0 - 0.0
21/02:00am 9.1 5.9 3.1 66 2.7 W 9 11 5 6 1018.7 1018.3 0.0
21/01:30am 10.1 6.5 3.2 62 3.1 WSW 11 13 6 7 1018.8 - 0.0
21/01:00am 11.4 7.9 3.4 58 3.6 W 11 13 6 7 1018.8 1018.4 0.0
21/12:30am 12.7 8.8 3.6 54 4.2 W 13 17 7 9 1018.7 - 0.0
21/12:00am 13.4 9.2 3.8 52 4.5 W 15 20 8 11 1019.0 1018.5 0.0
 
Date/Time
WST
Temp
°C
App
Temp
°C
Dew
Point
Rel
Hum
%
Delta-T
°C
Wind Press
QNH
hPa
Press
MSL
hPa
Rain
since 9 am
mm
Dir
 
Spd
km/h
Gust
km/h
Spd
kts
Gust
kts
20/11:30pm 13.2 10.1 3.8 53 4.4 WNW 9 13 5 7 1019.1 - 0.0
20/11:00pm 12.1 9.3 3.1 54 4.1 WNW 7 11 4 6 1019.2 1018.7 0.0
20/10:30pm 12.4 8.4 2.8 52 4.3 NNW 13 19 7 10 1019.5 - 0.0
20/10:00pm 12.3 8.7 2.7 52 4.3 NW 11 15 6 8 1019.4 1019.0 0.0
20/09:30pm 11.6 7.9 2.6 54 4.0 NW 11 13 6 7 1019.5 - 0.0
20/09:00pm 10.5 7.1 1.6 54 3.8 NW 9 11 5 6 1019.5 1019.1 0.0
20/08:30pm 11.4 7.6 1.6 51 4.3 NW 11 13 6 7 1019.4 - 0.0
20/08:00pm 11.8 8.3 1.4 49 4.5 NNW 9 11 5 6 1019.0 1018.5 0.0
20/07:30pm 12.4 8.9 1.1 46 4.9 NNW 9 11 5 6 1018.6 - 0.0
20/07:00pm 13.0 9.5 1.4 45 5.1 NNW 9 11 5 6 1018.3 1017.9 0.0
20/06:30pm 14.3 10.4 1.2 41 5.8 NW 11 13 6 7 1017.9 - 0.0

Other Formats:

Comma delimited format used in spreadsheet applications
http://www.bom.gov.au/fwo/IDW60801/IDW60801.99434.axf

JavaScript Object Notation format (JSON) in row-major order
http://www.bom.gov.au/fwo/IDW60801/IDW60801.99434.json